Time;durP1;ratioP1;P1;durP2;ratioP2;P2;SDS_P1;SDS_P2;PMS_P1;PMS_P2;Temp;Humidity;BMP_temperature;BMP_pressure;BME280_temperature;BME280_humidity;BME280_pressure;Samples;Min_cycle;Max_cycle;Signal;HPM_P1;HPM_P2
2023/11/18 00:01:22;;;;;;;1.67;0.93;;;21.60;55.70;;;;;;5019569;28;20028;-67
2023/11/18 00:03:47;;;;;;;1.30;0.80;;;21.60;55.70;;;;;;5019299;28;20022;-67
2023/11/18 00:06:13;;;;;;;1.13;0.73;;;21.50;55.70;;;;;;5016585;28;20030;-67
2023/11/18 00:08:39;;;;;;;1.55;0.80;;;21.50;55.70;;;;;;5017911;28;20426;-67
2023/11/18 00:11:04;;;;;;;1.33;0.80;;;21.50;55.70;;;;;;5019837;28;20037;-67
2023/11/18 00:13:30;;;;;;;1.20;0.70;;;21.50;55.70;;;;;;5017831;28;20058;-67
2023/11/18 00:15:57;;;;;;;1.23;0.70;;;21.50;56.30;;;;;;5018177;28;20029;-67
2023/11/18 00:18:23;;;;;;;1.42;0.90;;;21.50;55.80;;;;;;5019466;28;20056;-68
2023/11/18 00:20:50;;;;;;;2.30;1.00;;;21.50;55.80;;;;;;5035001;28;20148;-67
2023/11/18 00:23:17;;;;;;;1.17;0.70;;;21.40;55.80;;;;;;5031388;28;20075;-67
2023/11/18 00:25:45;;;;;;;2.33;0.80;;;21.40;55.80;;;;;;5017934;28;20040;-67
2023/11/18 00:28:11;;;;;;;1.58;0.80;;;21.40;55.80;;;;;;5019115;28;20482;-67
2023/11/18 00:30:37;;;;;;;0.82;0.60;;;21.40;55.80;;;;;;5019210;28;20030;-68
2023/11/18 00:33:02;;;;;;;1.30;0.70;;;21.40;55.90;;;;;;5019620;28;20551;-67
2023/11/18 00:35:31;;;;;;;1.50;0.80;;;21.40;55.90;;;;;;5017080;28;20045;-67
2023/11/18 00:37:58;;;;;;;1.40;0.82;;;21.30;55.80;;;;;;5015110;28;20029;-68
2023/11/18 00:40:23;;;;;;;1.08;0.70;;;21.40;55.90;;;;;;5018124;28;20026;-67
2023/11/18 00:42:49;;;;;;;1.75;0.70;;;21.30;55.90;;;;;;5019379;28;20620;-67
2023/11/18 00:45:15;;;;;;;1.02;0.70;;;21.30;55.90;;;;;;5032423;28;20029;-68
2023/11/18 00:47:41;;;;;;;1.92;0.90;;;21.30;55.90;;;;;;5019356;28;20130;-67
2023/11/18 00:50:10;;;;;;;1.00;0.77;;;21.30;56.00;;;;;;5017624;28;20029;-68
2023/11/18 00:52:38;;;;;;;1.52;0.70;;;21.30;56.00;;;;;;5017179;28;20048;-68
2023/11/18 00:55:06;;;;;;;1.10;0.63;;;21.30;56.00;;;;;;5016594;28;20453;-68
2023/11/18 00:57:31;;;;;;;0.85;0.63;;;21.30;56.00;;;;;;5021536;28;20033;-68
2023/11/18 00:59:58;;;;;;;0.82;0.60;;;21.20;56.00;;;;;;5022402;28;20026;-68
2023/11/18 01:02:23;;;;;;;1.45;0.80;;;21.20;56.00;;;;;;5021450;28;20545;-68
2023/11/18 01:04:50;;;;;;;0.95;0.70;;;21.20;56.00;;;;;;5021839;28;20022;-68
2023/11/18 01:07:16;;;;;;;1.58;0.88;;;21.20;56.00;;;;;;5020640;28;20048;-67
2023/11/18 01:09:41;;;;;;;1.40;0.70;;;21.20;56.00;;;;;;5018170;28;20471;-68
2023/11/18 01:12:09;;;;;;;1.77;0.63;;;21.20;56.10;;;;;;5024055;28;20021;-68
2023/11/18 01:14:39;;;;;;;1.10;0.70;;;21.20;56.10;;;;;;5020941;28;20434;-68
2023/11/18 01:17:09;;;;;;;2.10;0.70;;;21.20;56.10;;;;;;5022964;28;20525;-68
2023/11/18 01:19:35;;;;;;;1.10;0.70;;;21.20;56.20;;;;;;5021500;28;20035;-68
2023/11/18 01:22:05;;;;;;;1.05;0.70;;;21.20;56.20;;;;;;5022458;28;20017;-68
2023/11/18 01:24:30;;;;;;;1.23;0.70;;;21.10;56.10;;;;;;5003950;28;20128;-68
2023/11/18 01:26:56;;;;;;;1.38;0.73;;;21.10;56.10;;;;;;5020733;28;20194;-68
2023/11/18 01:29:22;;;;;;;0.73;0.70;;;21.10;56.20;;;;;;5023023;28;20021;-68
2023/11/18 01:31:48;;;;;;;1.30;0.70;;;21.10;56.20;;;;;;5037158;28;20053;-68
2023/11/18 01:34:13;;;;;;;0.70;0.60;;;21.10;56.20;;;;;;5022846;28;20029;-68
2023/11/18 01:36:39;;;;;;;1.10;0.60;;;21.10;56.20;;;;;;5022055;28;20545;-68
2023/11/18 01:39:04;;;;;;;0.80;0.60;;;21.00;56.20;;;;;;5018787;28;20084;-68
2023/11/18 01:41:32;;;;;;;0.90;0.52;;;21.00;56.20;;;;;;5022023;28;20172;-68
2023/11/18 01:43:59;;;;;;;0.90;0.60;;;21.00;56.20;;;;;;5022712;28;20025;-68
2023/11/18 01:46:25;;;;;;;0.93;0.50;;;21.00;56.20;;;;;;5022269;28;20029;-68
2023/11/18 01:48:52;;;;;;;0.68;0.65;;;21.00;56.20;;;;;;5019469;28;20109;-68
2023/11/18 01:51:19;;;;;;;0.85;0.68;;;21.00;56.30;;;;;;5022112;28;20412;-68
2023/11/18 01:53:49;;;;;;;1.40;0.70;;;21.00;56.30;;;;;;5018282;28;20022;-68
2023/11/18 01:56:15;;;;;;;0.70;0.60;;;21.00;56.30;;;;;;5035492;28;20026;-67
2023/11/18 01:58:41;;;;;;;0.88;0.63;;;21.00;56.30;;;;;;5019712;28;20486;-68
2023/11/18 02:01:08;;;;;;;0.90;0.60;;;21.00;56.30;;;;;;5019392;28;20029;-67
2023/11/18 02:03:38;;;;;;;1.00;0.68;;;20.90;56.30;;;;;;5021385;28;20501;-68
2023/11/18 02:06:05;;;;;;;0.60;0.60;;;20.90;56.30;;;;;;5022047;28;20105;-69
2023/11/18 02:08:35;;;;;;;0.75;0.70;;;20.90;56.30;;;;;;5020483;28;20490;-70
2023/11/18 02:11:12;;;;;;;0.80;0.70;;;20.90;56.30;;;;;;5019043;28;20454;-68
2023/11/18 02:13:42;;;;;;;1.23;0.70;;;20.90;56.30;;;;;;5022097;28;20401;-68
2023/11/18 02:16:09;;;;;;;1.05;0.75;;;20.90;56.30;;;;;;5021884;28;20025;-67
2023/11/18 02:18:39;;;;;;;0.65;0.60;;;20.90;56.40;;;;;;5018945;28;20454;-69
2023/11/18 02:21:08;;;;;;;0.82;0.50;;;20.90;56.40;;;;;;5019366;28;20026;-68
2023/11/18 02:23:33;;;;;;;1.42;0.70;;;20.90;56.30;;;;;;5020173;28;20511;-68
2023/11/18 02:26:01;;;;;;;0.98;0.70;;;20.90;56.40;;;;;;5017903;28;20025;-67
2023/11/18 02:28:27;;;;;;;0.88;0.63;;;20.80;56.30;;;;;;5036905;28;20037;-68
2023/11/18 02:31:03;;;;;;;1.15;0.70;;;20.80;56.40;;;;;;5020725;28;20436;-68
2023/11/18 02:33:39;;;;;;;1.05;0.63;;;20.90;56.40;;;;;;5021189;28;20029;-68
2023/11/18 02:36:14;;;;;;;0.88;0.60;;;20.80;56.40;;;;;;5020789;28;20049;-68
2023/11/18 02:38:46;;;;;;;0.50;0.50;;;20.80;56.40;;;;;;5018076;28;20084;-68
2023/11/18 02:41:13;;;;;;;1.30;0.70;;;20.80;56.40;;;;;;5017319;28;20030;-68
2023/11/18 02:43:40;;;;;;;0.80;0.68;;;20.80;56.40;;;;;;5014528;28;20076;-67
2023/11/18 02:46:07;;;;;;;0.73;0.60;;;20.80;56.40;;;;;;5016130;28;20422;-68
2023/11/18 02:48:35;;;;;;;0.90;0.60;;;20.80;56.40;;;;;;5020534;28;20026;-68
2023/11/18 02:51:01;;;;;;;0.77;0.50;;;20.80;56.40;;;;;;5020705;28;20072;-68
2023/11/18 02:53:27;;;;;;;0.85;0.63;;;20.80;56.40;;;;;;5020488;28;20030;-68
2023/11/18 02:55:53;;;;;;;0.63;0.50;;;20.70;56.40;;;;;;5019273;28;20057;-68
2023/11/18 02:58:20;;;;;;;0.55;0.55;;;20.80;56.40;;;;;;5018551;28;20104;-68
2023/11/18 03:00:46;;;;;;;1.33;0.70;;;20.70;56.40;;;;;;5019497;28;20026;-68
2023/11/18 03:03:11;;;;;;;1.02;0.70;;;20.70;56.40;;;;;;5019230;28;20079;-68
2023/11/18 03:05:38;;;;;;;0.65;0.60;;;20.70;56.40;;;;;;5019312;28;20442;-69
2023/11/18 03:08:06;;;;;;;0.77;0.57;;;20.70;56.40;;;;;;5018770;28;20033;-68
2023/11/18 03:10:34;;;;;;;1.30;0.60;;;20.70;56.40;;;;;;5018559;28;20034;-68
2023/11/18 03:13:01;;;;;;;1.27;0.55;;;20.70;56.40;;;;;;5001735;28;20044;-67
2023/11/18 03:15:28;;;;;;;1.08;0.65;;;20.70;56.50;;;;;;5018982;28;20026;-67
2023/11/18 03:17:54;;;;;;;0.60;0.60;;;20.70;56.50;;;;;;5020717;28;20061;-68
2023/11/18 03:20:22;;;;;;;1.10;0.60;;;20.70;56.50;;;;;;5037101;28;20845;-70
2023/11/18 03:22:49;;;;;;;0.73;0.60;;;20.70;56.50;;;;;;5019019;28;20485;-70
2023/11/18 03:25:16;;;;;;;0.60;0.50;;;20.70;56.50;;;;;;5018621;28;20501;-70
2023/11/18 03:27:42;;;;;;;1.52;0.65;;;20.70;56.50;;;;;;5019134;28;20048;-69
2023/11/18 03:30:09;;;;;;;0.95;0.65;;;20.70;56.50;;;;;;5018377;28;20041;-67
2023/11/18 03:32:36;;;;;;;1.42;0.65;;;20.60;56.40;;;;;;5020871;28;20488;-67
2023/11/18 03:35:07;;;;;;;0.77;0.50;;;20.60;56.50;;;;;;5000744;28;20478;-67
2023/11/18 03:37:32;;;;;;;0.68;0.60;;;20.60;56.50;;;;;;5019881;28;20045;-67
2023/11/18 03:39:58;;;;;;;1.25;0.60;;;20.60;56.50;;;;;;5032619;28;20018;-68
2023/11/18 03:42:24;;;;;;;0.68;0.50;;;20.60;56.50;;;;;;5018561;28;20022;-67
2023/11/18 03:44:49;;;;;;;0.40;0.40;;;20.60;56.50;;;;;;5019248;28;20031;-67
2023/11/18 03:47:15;;;;;;;0.73;0.60;;;20.60;56.50;;;;;;5019999;28;20152;-67
2023/11/18 03:49:41;;;;;;;0.95;0.60;;;20.60;56.50;;;;;;5019997;28;20336;-67
2023/11/18 03:52:07;;;;;;;0.98;0.70;;;20.60;56.50;;;;;;5020642;28;20026;-68
2023/11/18 03:54:32;;;;;;;1.23;0.70;;;20.60;56.60;;;;;;5017517;28;20486;-67
2023/11/18 03:56:59;;;;;;;0.65;0.60;;;20.60;56.60;;;;;;5019258;28;20037;-68
2023/11/18 03:59:25;;;;;;;0.60;0.60;;;20.60;56.60;;;;;;5015730;28;20029;-67
2023/11/18 04:01:51;;;;;;;0.63;0.50;;;20.60;56.60;;;;;;5016911;28;20042;-67
2023/11/18 04:04:17;;;;;;;0.50;0.50;;;20.50;56.50;;;;;;5020076;28;20487;-68
2023/11/18 04:06:43;;;;;;;0.73;0.50;;;20.50;56.50;;;;;;5020544;28;20034;-67
2023/11/18 04:09:12;;;;;;;1.00;0.70;;;20.50;56.60;;;;;;5018340;28;20022;-67
2023/11/18 04:11:38;;;;;;;0.52;0.52;;;20.50;56.60;;;;;;5015108;28;20512;-67
2023/11/18 04:14:04;;;;;;;0.80;0.60;;;20.50;56.60;;;;;;5018844;28;20030;-67
2023/11/18 04:16:30;;;;;;;0.93;0.68;;;20.50;56.60;;;;;;5019011;28;20036;-67
2023/11/18 04:18:55;;;;;;;0.80;0.60;;;20.50;56.60;;;;;;5018720;28;20091;-68
2023/11/18 04:21:22;;;;;;;0.90;0.60;;;20.50;56.60;;;;;;5017810;28;20029;-67
2023/11/18 04:23:48;;;;;;;0.77;0.50;;;20.50;56.60;;;;;;5018640;28;20361;-68
2023/11/18 04:26:14;;;;;;;0.88;0.50;;;20.50;56.60;;;;;;5015293;28;20323;-68
2023/11/18 04:28:39;;;;;;;0.80;0.60;;;20.50;56.60;;;;;;5018236;28;20021;-68
2023/11/18 04:31:06;;;;;;;0.77;0.50;;;20.50;56.60;;;;;;5018896;28;20041;-68
2023/11/18 04:33:32;;;;;;;0.70;0.55;;;20.50;56.60;;;;;;5018664;28;20033;-68
2023/11/18 04:35:57;;;;;;;0.60;0.60;;;20.40;56.60;;;;;;5019358;28;20076;-68
2023/11/18 04:38:25;;;;;;;0.50;0.50;;;20.50;56.70;;;;;;5017766;28;20033;-68
2023/11/18 04:40:50;;;;;;;0.88;0.70;;;20.40;56.60;;;;;;5017236;28;20014;-68
2023/11/18 04:43:16;;;;;;;0.88;0.52;;;20.40;56.60;;;;;;5017580;28;20030;-68
2023/11/18 04:45:48;;;;;;;0.50;0.50;;;20.40;56.60;;;;;;5031774;28;20025;-68
2023/11/18 04:48:14;;;;;;;0.60;0.60;;;20.40;56.60;;;;;;5017579;28;20029;-68
2023/11/18 04:50:41;;;;;;;0.50;0.50;;;20.40;56.70;;;;;;5019116;28;20037;-68
2023/11/18 04:53:10;;;;;;;0.55;0.50;;;20.40;56.70;;;;;;5004568;28;20111;-68
2023/11/18 04:55:36;;;;;;;;;;;20.50;56.70;;;;;;5015584;28;20040;-68
2023/11/18 04:58:02;;;;;;;0.45;0.40;;;20.40;56.70;;;;;;5019061;28;19913;-68
2023/11/18 05:00:28;;;;;;;0.75;0.50;;;20.40;56.70;;;;;;5015646;28;20496;-68
2023/11/18 05:02:54;;;;;;;0.80;0.57;;;20.40;56.70;;;;;;5018355;28;20140;-67
2023/11/18 05:05:22;;;;;;;1.60;0.63;;;20.40;56.70;;;;;;5019158;28;20473;-68
2023/11/18 05:07:47;;;;;;;0.50;0.50;;;20.40;56.70;;;;;;5019134;28;20030;-68
2023/11/18 05:10:13;;;;;;;0.68;0.52;;;20.40;56.70;;;;;;5016075;28;20045;-68
2023/11/18 05:12:53;;;;;;;0.70;0.57;;;20.40;56.70;;;;;;5017922;28;20025;-68
2023/11/18 05:15:18;;;;;;;0.60;0.50;;;20.40;56.70;;;;;;5019130;28;20026;-68
2023/11/18 05:17:44;;;;;;;0.75;0.60;;;20.40;56.70;;;;;;5018472;28;20105;-68
2023/11/18 05:20:11;;;;;;;0.75;0.50;;;20.40;56.70;;;;;;5018288;28;20112;-68
2023/11/18 05:22:36;;;;;;;0.47;0.45;;;20.40;56.70;;;;;;5018298;28;20021;-68
2023/11/18 05:25:04;;;;;;;0.52;0.52;;;20.40;56.70;;;;;;5019640;28;20344;-68
2023/11/18 05:27:31;;;;;;;0.60;0.50;;;20.40;57.20;;;;;;5018312;28;20365;-68
2023/11/18 05:29:59;;;;;;;0.63;0.55;;;20.40;56.70;;;;;;5018373;28;20030;-70
2023/11/18 05:32:27;;;;;;;0.57;0.50;;;20.40;56.70;;;;;;5017703;28;20021;-70
2023/11/18 05:34:54;;;;;;;0.70;0.70;;;20.30;56.70;;;;;;5018416;28;20034;-70
2023/11/18 05:37:21;;;;;;;0.60;0.50;;;20.30;56.70;;;;;;5017396;28;20017;-70
2023/11/18 05:39:49;;;;;;;0.40;0.40;;;20.30;56.70;;;;;;5009866;28;20599;-68
2023/11/18 05:42:15;;;;;;;0.70;0.45;;;20.30;56.70;;;;;;4998535;28;20044;-68
2023/11/18 05:44:41;;;;;;;0.68;0.52;;;20.40;56.80;;;;;;5036722;28;20042;-68
2023/11/18 05:47:07;;;;;;;0.70;0.50;;;20.30;56.80;;;;;;5021369;28;20029;-68
2023/11/18 05:49:34;;;;;;;0.90;0.70;;;20.30;56.80;;;;;;5018582;28;20037;-68
2023/11/18 05:52:00;;;;;;;1.00;0.50;;;20.30;56.80;;;;;;5022353;28;20079;-68
2023/11/18 05:54:25;;;;;;;1.05;0.50;;;20.30;56.80;;;;;;5021442;28;20028;-68
2023/11/18 05:56:53;;;;;;;0.90;0.50;;;20.30;56.80;;;;;;5017737;28;20034;-68
2023/11/18 05:59:19;;;;;;;0.45;0.45;;;20.30;56.90;;;;;;5020822;28;20021;-68
2023/11/18 06:01:45;;;;;;;1.13;0.70;;;20.30;56.80;;;;;;5018611;28;20028;-68
2023/11/18 06:04:10;;;;;;;0.50;0.50;;;20.30;56.80;;;;;;5021860;28;20026;-68
2023/11/18 06:06:37;;;;;;;0.60;0.38;;;20.30;56.90;;;;;;5023454;28;20026;-68
2023/11/18 06:09:09;;;;;;;0.50;0.50;;;20.30;57.10;;;;;;5021917;28;20026;-68
2023/11/18 06:11:35;;;;;;;0.70;0.55;;;20.30;56.90;;;;;;5018943;28;20021;-69
2023/11/18 06:14:01;;;;;;;1.33;0.47;;;20.30;56.90;;;;;;5022316;28;20067;-68
2023/11/18 06:16:27;;;;;;;0.55;0.50;;;20.30;56.90;;;;;;5020528;28;20152;-68
2023/11/18 06:18:58;;;;;;;0.60;0.60;;;20.30;56.90;;;;;;5020170;28;20030;-68
2023/11/18 06:21:29;;;;;;;0.73;0.70;;;20.30;56.90;;;;;;5022304;28;20112;-68
2023/11/18 06:23:57;;;;;;;0.50;0.50;;;20.30;56.90;;;;;;5005528;28;20095;-68
2023/11/18 06:26:26;;;;;;;0.43;0.43;;;20.30;56.90;;;;;;5019030;28;20026;-68
2023/11/18 06:28:55;;;;;;;0.50;0.50;;;20.30;56.90;;;;;;5022250;28;20026;-68
2023/11/18 06:31:23;;;;;;;0.60;0.50;;;20.30;56.90;;;;;;5020334;28;20034;-68
2023/11/18 06:33:49;;;;;;;0.98;0.60;;;20.30;57.00;;;;;;5021969;28;20026;-68
2023/11/18 06:36:16;;;;;;;0.75;0.50;;;20.30;57.00;;;;;;5020031;28;20488;-68
2023/11/18 06:38:43;;;;;;;0.47;0.47;;;20.20;56.90;;;;;;5021617;28;20077;-68
2023/11/18 06:41:11;;;;;;;0.70;0.70;;;20.20;56.90;;;;;;5017890;28;20038;-68
2023/11/18 06:46:26;;;;;;;0.60;0.50;;;20.20;56.90;;;;;;5022021;28;20032;-67
2023/11/18 06:49:03;;;;;;;0.50;0.50;;;20.20;56.90;;;;;;5019029;28;20401;-68
2023/11/18 06:51:31;;;;;;;0.45;0.45;;;20.20;57.00;;;;;;5020533;28;20030;-71
2023/11/18 06:53:57;;;;;;;0.70;0.50;;;20.20;57.00;;;;;;5020581;28;20469;-70
2023/11/18 06:56:27;;;;;;;1.08;0.60;;;20.20;57.00;;;;;;5035148;28;20513;-70
2023/11/18 06:58:53;;;;;;;1.10;0.60;;;20.20;57.00;;;;;;5020977;28;20509;-70
2023/11/18 07:01:19;;;;;;;0.98;0.50;;;20.20;57.00;;;;;;5019911;28;20421;-68
2023/11/18 07:03:48;;;;;;;0.40;0.40;;;20.20;57.00;;;;;;5018781;28;20106;-68
2023/11/18 07:06:21;;;;;;;0.63;0.60;;;20.20;57.00;;;;;;5020595;28;20025;-68
2023/11/18 07:08:49;;;;;;;0.80;0.55;;;20.20;57.10;;;;;;5034720;28;20056;-68
2023/11/18 07:11:15;;;;;;;0.50;0.50;;;20.20;57.10;;;;;;5018462;28;20534;-68
2023/11/18 07:13:41;;;;;;;0.57;0.40;;;20.20;57.10;;;;;;5020191;28;20030;-68
2023/11/18 07:16:08;;;;;;;0.40;0.40;;;20.20;57.10;;;;;;5018555;28;20152;-68
2023/11/18 07:18:35;;;;;;;0.63;0.50;;;20.10;57.00;;;;;;5018780;28;20545;-68
2023/11/18 07:21:01;;;;;;;0.40;0.40;;;20.10;57.10;;;;;;5019460;28;20022;-68
2023/11/18 07:23:26;;;;;;;0.75;0.50;;;20.10;57.10;;;;;;5021297;28;20339;-67
2023/11/18 07:25:53;;;;;;;0.60;0.50;;;20.10;57.10;;;;;;5020564;28;20113;-68
2023/11/18 07:28:19;;;;;;;0.45;0.45;;;20.10;57.10;;;;;;5015375;28;20025;-68
2023/11/18 07:30:47;;;;;;;0.57;0.57;;;20.10;57.10;;;;;;5017186;28;20017;-68
2023/11/18 07:33:16;;;;;;;0.50;0.50;;;20.10;57.10;;;;;;5018816;28;20486;-68
2023/11/18 07:35:42;;;;;;;;;;;20.10;57.20;;;;;;5021402;28;20539;-68
2023/11/18 07:38:09;;;;;;;0.73;0.55;;;20.10;57.20;;;;;;5000252;28;19913;-67
2023/11/18 07:40:35;;;;;;;0.60;0.50;;;20.10;57.20;;;;;;5020735;28;20116;-68
2023/11/18 07:43:03;;;;;;;0.50;0.50;;;20.10;57.20;;;;;;5016464;28;20110;-67
2023/11/18 07:45:37;;;;;;;0.75;0.60;;;20.10;57.20;;;;;;5019277;28;20014;-68
2023/11/18 07:48:06;;;;;;;0.68;0.50;;;20.10;57.30;;;;;;5019742;28;20482;-68
2023/11/18 07:50:42;;;;;;;0.60;0.40;;;20.10;57.20;;;;;;5018863;28;20449;-67
2023/11/18 07:53:08;;;;;;;0.50;0.50;;;20.10;57.30;;;;;;5020572;28;20034;-68
2023/11/18 07:55:34;;;;;;;0.50;0.50;;;20.10;57.80;;;;;;5020881;28;20373;-68
2023/11/18 07:58:01;;;;;;;0.80;0.60;;;20.10;57.30;;;;;;5017782;28;20351;-68
2023/11/18 08:00:30;;;;;;;0.50;0.50;;;20.00;57.80;;;;;;5019056;28;20117;-68
2023/11/18 08:02:57;;;;;;;0.50;0.50;;;20.00;57.70;;;;;;5018729;28;20496;-68
2023/11/18 08:05:22;;;;;;;0.55;0.55;;;20.00;57.30;;;;;;5019585;28;20034;-68
2023/11/18 08:07:49;;;;;;;0.75;0.60;;;20.00;57.30;;;;;;5017147;28;20495;-68
2023/11/18 08:10:18;;;;;;;0.77;0.50;;;20.00;57.30;;;;;;5018539;28;20025;-67
2023/11/18 08:12:44;;;;;;;0.65;0.60;;;20.00;57.30;;;;;;5016672;28;20029;-69
2023/11/18 08:15:10;;;;;;;1.10;0.75;;;20.00;57.30;;;;;;5019690;28;20049;-67
2023/11/18 08:17:36;;;;;;;0.50;0.50;;;20.00;57.40;;;;;;5018447;28;20442;-66
2023/11/18 08:20:13;;;;;;;0.60;0.52;;;20.00;57.40;;;;;;5017488;28;20026;-66
2023/11/18 08:22:44;;;;;;;0.57;0.50;;;20.00;57.40;;;;;;5019033;28;20418;-67
2023/11/18 08:25:11;;;;;;;1.55;0.43;;;20.00;57.50;;;;;;5018125;28;20029;-67
2023/11/18 08:27:37;;;;;;;0.60;0.50;;;20.00;57.50;;;;;;5016717;28;20095;-66
2023/11/18 08:30:10;;;;;;;0.50;0.50;;;20.00;57.50;;;;;;5018649;28;20055;-66
2023/11/18 08:32:37;;;;;;;0.65;0.50;;;20.00;57.40;;;;;;5034512;28;20036;-67
2023/11/18 08:35:06;;;;;;;1.15;0.50;;;20.00;57.50;;;;;;5018808;28;20109;-67
2023/11/18 08:37:32;;;;;;;0.40;0.40;;;20.00;57.50;;;;;;5019360;28;20494;-66
2023/11/18 08:39:58;;;;;;;0.40;0.40;;;20.00;57.50;;;;;;5019267;28;20192;-66
2023/11/18 08:42:24;;;;;;;0.55;0.50;;;20.00;57.50;;;;;;5017778;28;20089;-67
2023/11/18 08:44:49;;;;;;;0.52;0.50;;;20.00;57.50;;;;;;5017114;28;20013;-67
2023/11/18 08:47:15;;;;;;;0.65;0.50;;;20.00;57.50;;;;;;5016881;28;20041;-66
2023/11/18 08:49:46;;;;;;;0.50;0.50;;;20.00;57.50;;;;;;5018616;28;20454;-66
2023/11/18 08:52:12;;;;;;;1.45;0.60;;;20.00;57.50;;;;;;5018008;28;20032;-67
2023/11/18 08:55:12;;;;;;;0.43;0.35;;;20.00;57.60;;;;;;5016694;28;20056;-67
2023/11/18 08:57:25;;;;;;;0.50;0.50;;;19.90;57.50;;;;;;5016479;28;20129;-66
2023/11/18 08:59:51;;;;;;;1.17;0.50;;;20.00;57.60;;;;;;5018532;28;20056;-67
2023/11/18 09:02:23;;;;;;;0.63;0.50;;;19.90;57.50;;;;;;5018874;28;20026;-66
2023/11/18 09:04:49;;;;;;;0.60;0.60;;;19.90;57.50;;;;;;5018124;28;20033;-67
2023/11/18 09:07:16;;;;;;;0.63;0.52;;;19.90;58.10;;;;;;5018117;28;20084;-67
2023/11/18 09:09:41;;;;;;;0.68;0.60;;;19.90;57.60;;;;;;5020490;28;20053;-70
2023/11/18 09:12:08;;;;;;;0.50;0.50;;;19.90;57.60;;;;;;5030835;28;20065;-70
2023/11/18 09:14:34;;;;;;;0.70;0.50;;;19.90;57.60;;;;;;5017719;28;20038;-70
2023/11/18 09:17:01;;;;;;;0.80;0.50;;;19.90;57.60;;;;;;5019041;28;20063;-70
2023/11/18 09:19:27;;;;;;;0.68;0.60;;;19.90;57.60;;;;;;5018961;28;20469;-70
2023/11/18 09:21:54;;;;;;;0.77;0.50;;;19.90;57.60;;;;;;5022703;28;20030;-67
2023/11/18 09:24:20;;;;;;;1.33;0.50;;;19.90;57.70;;;;;;5021073;28;20060;-67
2023/11/18 09:26:50;;;;;;;0.50;0.50;;;19.90;57.70;;;;;;5005878;28;20026;-67
2023/11/18 09:29:18;;;;;;;0.63;0.52;;;19.90;57.70;;;;;;5018642;28;20026;-67
2023/11/18 09:31:48;;;;;;;1.10;0.50;;;19.90;57.70;;;;;;5018950;28;20353;-67
2023/11/18 09:34:16;;;;;;;0.40;0.40;;;19.90;57.70;;;;;;5021171;28;20029;-67
2023/11/18 09:36:43;;;;;;;1.23;0.93;;;19.90;57.70;;;;;;5002721;28;20109;-67
2023/11/18 09:39:15;;;;;;;0.38;0.32;;;19.90;57.70;;;;;;5020660;28;20033;-67
2023/11/18 09:41:41;;;;;;;0.52;0.50;;;19.90;57.70;;;;;;5021999;28;20100;-67
2023/11/18 09:44:07;;;;;;;0.82;0.57;;;19.90;57.80;;;;;;5034854;28;20502;-67
2023/11/18 09:46:40;;;;;;;1.13;0.70;;;19.90;58.20;;;;;;5020194;28;20109;-66
2023/11/18 09:49:33;;;;;;;1.10;0.50;;;19.90;58.30;;;;;;5022264;28;20087;-67
2023/11/18 09:52:02;;;;;;;0.88;0.52;;;19.90;57.80;;;;;;5021358;28;20021;-67
2023/11/18 09:54:38;;;;;;;0.73;0.52;;;19.90;57.80;;;;;;5020277;28;20018;-67
2023/11/18 09:57:12;;;;;;;1.10;0.73;;;19.90;57.80;;;;;;5021529;28;20588;-67
2023/11/18 09:59:47;;;;;;;0.93;0.60;;;19.90;57.80;;;;;;5019731;28;20046;-67
2023/11/18 10:02:13;;;;;;;0.95;0.60;;;19.90;57.80;;;;;;5023530;28;20021;-67
2023/11/18 10:04:40;;;;;;;0.63;0.55;;;19.90;57.80;;;;;;5022612;28;20393;-67
2023/11/18 10:07:11;;;;;;;0.88;0.60;;;19.90;57.80;;;;;;5021752;28;20030;-67
2023/11/18 10:09:38;;;;;;;0.75;0.55;;;19.90;57.80;;;;;;5019989;28;20056;-67
2023/11/18 10:12:07;;;;;;;0.60;0.50;;;19.90;57.80;;;;;;5021146;28;20041;-70
2023/11/18 10:14:34;;;;;;;;;;;19.90;57.90;;;;;;5001218;28;20057;-70
2023/11/18 10:17:06;;;;;;;0.40;0.40;;;19.90;57.90;;;;;;5020525;28;20008;-70
2023/11/18 10:19:51;;;;;;;1.42;0.70;;;19.90;57.90;;;;;;5020465;28;20018;-70
2023/11/18 10:22:26;;;;;;;1.05;0.60;;;19.90;58.00;;;;;;5021934;28;20065;-66
2023/11/18 10:24:54;;;;;;;1.75;0.60;;;19.90;57.90;;;;;;5014281;28;20029;-66
2023/11/18 10:27:23;;;;;;;1.27;0.60;;;19.80;57.90;;;;;;5021580;28;20029;-66
2023/11/18 10:29:52;;;;;;;0.75;0.50;;;19.90;58.00;;;;;;5019324;28;20058;-66
2023/11/18 10:32:21;;;;;;;0.90;0.50;;;19.90;58.00;;;;;;5020517;28;20474;-66
2023/11/18 10:34:49;;;;;;;0.60;0.50;;;19.90;58.00;;;;;;5016586;28;20520;-67
2023/11/18 10:37:16;;;;;;;0.98;0.70;;;19.90;58.00;;;;;;5022982;28;20168;-67
2023/11/18 10:39:48;;;;;;;0.85;0.55;;;19.90;58.00;;;;;;5019731;28;20025;-66
2023/11/18 10:42:13;;;;;;;0.52;0.50;;;19.80;58.00;;;;;;5019832;28;20026;-66
2023/11/18 10:44:57;;;;;;;0.88;0.57;;;19.90;58.00;;;;;;5019480;28;20091;-66
2023/11/18 10:47:26;;;;;;;1.23;0.70;;;19.80;58.00;;;;;;5020679;28;20101;-66
2023/11/18 10:49:56;;;;;;;0.60;0.60;;;19.90;58.10;;;;;;5017747;28;20076;-66
2023/11/18 10:52:23;;;;;;;0.50;0.50;;;19.80;58.00;;;;;;5018624;28;20536;-67
2023/11/18 10:54:56;;;;;;;1.20;0.60;;;19.80;58.00;;;;;;5020721;28;20080;-66
2023/11/18 10:57:24;;;;;;;0.70;0.50;;;19.80;58.00;;;;;;5020819;28;20431;-66
2023/11/18 11:00:04;;;;;;;0.97;0.60;;;19.80;58.10;;;;;;5018718;28;20116;-66
2023/11/18 11:02:38;;;;;;;0.88;0.60;;;19.80;58.00;;;;;;5020707;28;20276;-66
2023/11/18 11:05:04;;;;;;;0.70;0.57;;;19.80;58.00;;;;;;5018193;28;20461;-66
2023/11/18 11:07:31;;;;;;;0.57;0.50;;;19.80;58.00;;;;;;5019630;28;20045;-67
2023/11/18 11:09:57;;;;;;;0.82;0.60;;;19.80;57.90;;;;;;5018507;28;20393;-67
2023/11/18 11:12:25;;;;;;;0.85;0.63;;;19.80;58.00;;;;;;5019232;28;20025;-66
2023/11/18 11:15:04;;;;;;;0.70;0.50;;;19.80;58.00;;;;;;5017135;28;20084;-66
2023/11/18 11:17:34;;;;;;;1.08;0.70;;;19.80;57.90;;;;;;5018839;28;20125;-66
2023/11/18 11:20:16;;;;;;;;;;;19.80;58.00;;;;;;5020012;28;20117;-66
2023/11/18 11:22:54;;;;;;;0.60;0.60;;;19.90;58.10;;;;;;5019284;28;20366;-67
2023/11/18 11:25:28;;;;;;;0.63;0.50;;;19.90;58.60;;;;;;5020428;28;20032;-67
2023/11/18 11:28:05;;;;;;;0.90;0.60;;;19.90;58.00;;;;;;5019952;28;20069;-68
2023/11/18 11:30:50;;;;;;;0.63;0.47;;;19.80;58.00;;;;;;5017131;28;20034;-67
2023/11/18 11:33:36;;;;;;;0.70;0.50;;;19.90;58.00;;;;;;5020665;28;20034;-67
2023/11/18 11:36:05;;;;;;;1.13;0.50;;;19.90;58.00;;;;;;5032650;28;20510;-67
2023/11/18 11:38:32;;;;;;;0.95;0.60;;;19.90;58.00;;;;;;5020873;28;20037;-67
2023/11/18 11:41:01;;;;;;;0.70;0.60;;;19.80;58.00;;;;;;5019380;28;20113;-67
2023/11/18 11:43:27;;;;;;;;;;;19.90;58.00;;;;;;5018433;28;20469;-66
2023/11/18 11:45:55;;;;;;;1.02;0.70;;;19.90;58.00;;;;;;5019496;28;19955;-66
2023/11/18 11:48:27;;;;;;;0.80;0.70;;;19.90;58.00;;;;;;5020289;28;20517;-66
2023/11/18 11:51:04;;;;;;;0.93;0.70;;;19.90;58.10;;;;;;5019342;28;20085;-67
2023/11/18 11:53:41;;;;;;;0.75;0.60;;;19.90;58.10;;;;;;5019385;28;20022;-66
2023/11/18 11:56:14;;;;;;;0.60;0.50;;;19.90;58.00;;;;;;5018272;28;20497;-66
2023/11/18 11:58:44;;;;;;;0.82;0.70;;;19.90;58.00;;;;;;5016988;28;20092;-66
2023/11/18 12:01:25;;;;;;;0.85;0.60;;;19.90;58.00;;;;;;5019416;28;20092;-66
2023/11/18 12:03:57;;;;;;;0.63;0.50;;;19.90;58.00;;;;;;5017710;28;20017;-66
2023/11/18 12:06:23;;;;;;;0.60;0.60;;;19.90;58.00;;;;;;5017854;28;20413;-66
2023/11/18 12:08:53;;;;;;;0.70;0.60;;;19.90;58.00;;;;;;5021280;28;20034;-66
2023/11/18 12:11:20;;;;;;;0.55;0.50;;;19.90;58.00;;;;;;5000762;28;20022;-67
2023/11/18 12:14:19;;;;;;;0.40;0.40;;;19.90;58.00;;;;;;5018863;28;20547;-66
2023/11/18 12:17:01;;;;;;;0.65;0.50;;;19.90;58.00;;;;;;5019666;28;20143;-66
2023/11/18 12:19:44;;;;;;;1.20;0.60;;;19.90;58.00;;;;;;5018736;28;20072;-66
2023/11/18 12:22:17;;;;;;;0.73;0.50;;;19.90;58.00;;;;;;5018327;28;20485;-67
2023/11/18 12:25:06;;;;;;;1.00;0.73;;;19.90;58.00;;;;;;5016959;28;20030;-66
2023/11/18 12:27:41;;;;;;;0.77;0.60;;;19.90;58.00;;;;;;5007699;28;20045;-66
2023/11/18 12:30:18;;;;;;;0.93;0.60;;;19.90;58.00;;;;;;5017386;28;20088;-66
2023/11/18 12:32:58;;;;;;;0.90;0.82;;;19.90;58.00;;;;;;5016377;28;20592;-67
2023/11/18 12:35:27;;;;;;;1.10;0.68;;;19.90;58.00;;;;;;5020067;28;20026;-66
2023/11/18 12:38:34;;;;;;;1.10;0.60;;;19.90;58.00;;;;;;5018063;28;20379;-66
2023/11/18 12:41:11;;;;;;;1.55;0.63;;;19.90;58.00;;;;;;5019777;28;20378;-67
2023/11/18 12:43:55;;;;;;;0.50;0.50;;;19.90;57.90;;;;;;5015380;28;20063;-66
2023/11/18 12:46:53;;;;;;;1.08;0.52;;;19.90;58.00;;;;;;5017860;28;20446;-66
2023/11/18 12:49:23;;;;;;;0.65;0.60;;;19.90;58.00;;;;;;5018488;28;20030;-66
2023/11/18 12:51:53;;;;;;;1.00;0.68;;;19.90;58.00;;;;;;5012013;28;20081;-67
2023/11/18 12:54:29;;;;;;;0.85;0.55;;;19.90;58.00;;;;;;5017528;28;20032;-67
2023/11/18 12:56:55;;;;;;;1.05;0.60;;;19.90;58.00;;;;;;5020304;28;20108;-67
2023/11/18 12:59:23;;;;;;;0.65;0.60;;;19.90;58.00;;;;;;5018597;28;20379;-67